Eborense — CSMP — position and weather

sailwx.info

Track history (hours):
 
Tides and Currents Weather Stations Pressure Air Temp Water Temp Dewpoint Dewpoint Depression Visibility Wind Speed Wind Dir Waves Ship Positions

Eborense

Last reported at 2015-May-21 17:33 UTC. Time now 2015-May-24 04:58 UTC.
Position N 38°41' W 009°09'.

Length 49 m; draft 1.2 m.

Type: Passenger vessel. MMSI: 263701750.

Date/timePositionNaut miles runAvg speedWind from/ knotsBaromVisibWave heightAir tempDewpointWater temp
2015-May-21 17:33N 38°41' W 009°09'2 0.3
2015-May-21 12:33N 38°41' W 009°11'1 0.8
2015-May-21 11:28N 38°42' W 009°12'0 0.0
2015-May-21 10:33N 38°42' W 009°12'1 0.8
2015-May-21 09:33N 38°42' W 009°11'2 1.9
2015-May-21 08:34N 38°42' W 009°09'0 0.0
2015-May-19 15:32N 38°41' W 009°09'0 0.1
2015-May-19 14:30N 38°41' W 009°09'0 0.0
2015-May-19 13:30N 38°41' W 009°09'0 0.0
2015-May-19 12:30N 38°41' W 009°09'0 0.0
2015-May-19 10:29N 38°41' W 009°09'0 0.0
2015-May-19 09:28N 38°41' W 009°09'0 0.1
2015-May-19 08:33N 38°41' W 009°09'0 0.0
2015-May-18 17:14N 38°41' W 009°09'2 3.2
2015-May-18 16:33N 38°42' W 009°12'0 0.2
2015-May-18 15:33N 38°42' W 009°12'0 0.1
2015-May-18 14:33N 38°42' W 009°12'1 1.1
2015-May-18 13:33N 38°41' W 009°12'1 1.0
2015-May-18 12:28N 38°42' W 009°12'0 0.1
2015-May-18 11:31N 38°42' W 009°12'0 0.0
2015-May-18 10:31N 38°42' W 009°12'2 2.0
2015-May-18 09:32N 38°40' W 009°14'0 0.1
2015-May-18 08:33N 38°40' W 009°14'0 0.1
2015-May-18 07:32N 38°40' W 009°14'0 0.2
2015-May-18 06:30N 38°41' W 009°14'1 1.1
2015-May-18 05:23N 38°41' W 009°12'0 0.0
2015-May-18 04:33N 38°41' W 009°12'0 0.0
2015-May-17 21:07N 38°41' W 009°12'1 1.7
2015-May-17 20:32N 38°42' W 009°12'2 1.9
2015-May-17 19:32N 38°40' W 009°14'0 0.2
2015-May-17 18:33N 38°40' W 009°14'1 0.7
2015-May-17 17:34N 38°41' W 009°13'1 0.7
2015-May-17 16:32N 38°41' W 009°13'0 0.3
2015-May-17 15:33N 38°41' W 009°12'1 0.8
2015-May-17 14:31N 38°41' W 009°12'1 1.4
2015-May-17 13:32N 38°41' W 009°14'2 1.1
2015-May-17 12:11N 38°42' W 009°12'1 2.2
2015-May-17 11:32N 38°41' W 009°14'1 0.6
2015-May-17 10:31N 38°40' W 009°14'1 0.5
2015-May-17 09:33N 38°41' W 009°14'2 1.7
2015-May-17 08:31N 38°42' W 009°12'0 0.1
2015-May-17 07:32N 38°42' W 009°12'1 1.0
2015-May-17 06:27N 38°41' W 009°12'0 0.0
2015-May-16 21:12N 38°41' W 009°12'1 1.2
2015-May-16 20:33N 38°41' W 009°12'2 1.6
2015-May-16 19:33N 38°40' W 009°14'0 0.2
2015-May-16 18:32N 38°40' W 009°14'2 2.2
2015-May-16 17:31N 38°42' W 009°12'2 2.1
2015-May-16 16:21N 38°39' W 009°13'1 1.2
2015-May-16 15:08N 38°40' W 009°14'2 3.4
2015-May-16 14:33N 38°42' W 009°12'1 1.0
2015-May-16 13:33N 38°41' W 009°12'1 1.1
2015-May-16 12:33N 38°41' W 009°14'0 0.1
2015-May-16 11:33N 38°40' W 009°14'1 0.6
2015-May-16 10:33N 38°41' W 009°14'1 1.4
2015-May-16 09:31N 38°42' W 009°12'0 0.4
2015-May-16 08:33N 38°41' W 009°12'0 0.2
2015-May-16 07:33N 38°41' W 009°12'0 0.2
2015-May-16 06:33N 38°42' W 009°12'1 1.1
2015-May-16 05:33N 38°41' W 009°13'0 0.0
2015-May-15 04:28N 38°41' W 009°12'1 0.1
2015-May-14 21:09N 38°41' W 009°13'1 0.8
2015-May-14 20:22N 38°41' W 009°14'0 0.3
2015-May-14 19:28N 38°40' W 009°14'2 1.9
2015-May-14 18:33N 38°42' W 009°12'0 0.3
2015-May-14 17:29N 38°42' W 009°12'0 0.3
2015-May-14 16:33N 38°42' W 009°12'0 0.3
2015-May-14 15:31N 38°41' W 009°12'1 0.6
2015-May-14 14:34N 38°41' W 009°13'1 0.6
2015-May-14 13:29N 38°41' W 009°12'1 1.1
2015-May-14 12:31N 38°42' W 009°12'0 0.1
2015-May-14 11:33N 38°42' W 009°12'0 0.1
2015-May-14 10:32N 38°42' W 009°12'2 1.9
2015-May-14 09:32N 38°40' W 009°14'0 0.0
2015-May-14 08:29N 38°40' W 009°14'0 0.0
2015-May-14 07:31N 38°40' W 009°14'0 0.1
2015-May-14 06:33N 38°41' W 009°14'1 1.2
2015-May-14 05:32N 38°41' W 009°12'0 0.0
2015-May-13 21:33N 38°41' W 009°12'1 1.2
2015-May-13 20:33N 38°41' W 009°14'0 0.1
2015-May-13 19:33N 38°41' W 009°14'2 1.8
2015-May-13 18:33N 38°42' W 009°12'0 0.1
2015-May-13 17:32N 38°42' W 009°12'1 0.8
2015-May-13 16:33N 38°41' W 009°11'2 1.9
2015-May-13 15:32N 38°41' W 009°09'0 0.0
2015-May-13 13:30N 38°41' W 009°09'0 0.1
2015-May-13 12:31N 38°41' W 009°09'0 0.1
2015-May-13 10:33N 38°41' W 009°09'0 0.0
2015-May-13 09:33N 38°41' W 009°09'0 0.0
2015-May-13 08:33N 38°41' W 009°09'0 0.0
2015-May-13 07:33N 38°41' W 009°09'0 0.0
2015-May-12 18:30N 38°41' W 009°09'0 0.1
2015-May-12 15:12N 38°41' W 009°09'3 3.9
2015-May-12 14:32N 38°42' W 009°12'1 0.9
2015-May-12 13:31N 38°41' W 009°12'1 1.1
2015-May-12 12:33N 38°42' W 009°12'0 0.1
2015-May-12 11:33N 38°42' W 009°12'0 0.0
2015-May-12 10:33N 38°42' W 009°12'2 1.9
2015-May-12 09:33N 38°40' W 009°14'4 3.7
2015-May-12 08:33N 38°42' W 009°09'1 0.5
2015-May-12 07:28N 38°41' W 009°09'  
Track history (hours):
 
Tides and Currents Weather Stations Pressure Air Temp Water Temp Dewpoint Dewpoint Depression Visibility Wind Speed Wind Dir Waves Ship Positions

Eborense

Last reported at 2015-May-21 17:33 UTC. Time now 2015-May-24 04:58 UTC.
Position N 38°41' W 009°09'.

Length 49 m; draft 1.2 m.

Type: Passenger vessel. MMSI: 263701750.

Date/timePositionNaut miles runAvg speedWind from/ knotsBaromVisibWave heightAir tempDewpointWater temp
2015-May-21 17:33N 38°41' W 009°09'2 0.3
2015-May-21 12:33N 38°41' W 009°11'1 0.8
2015-May-21 11:28N 38°42' W 009°12'0 0.0
2015-May-21 10:33N 38°42' W 009°12'1 0.8
2015-May-21 09:33N 38°42' W 009°11'2 1.9
2015-May-21 08:34N 38°42' W 009°09'0 0.0
2015-May-19 15:32N 38°41' W 009°09'0 0.1
2015-May-19 14:30N 38°41' W 009°09'0 0.0
2015-May-19 13:30N 38°41' W 009°09'0 0.0
2015-May-19 12:30N 38°41' W 009°09'0 0.0
2015-May-19 10:29N 38°41' W 009°09'0 0.0
2015-May-19 09:28N 38°41' W 009°09'0 0.1
2015-May-19 08:33N 38°41' W 009°09'0 0.0
2015-May-18 17:14N 38°41' W 009°09'2 3.2
2015-May-18 16:33N 38°42' W 009°12'0 0.2
2015-May-18 15:33N 38°42' W 009°12'0 0.1
2015-May-18 14:33N 38°42' W 009°12'1 1.1
2015-May-18 13:33N 38°41' W 009°12'1 1.0
2015-May-18 12:28N 38°42' W 009°12'0 0.1
2015-May-18 11:31N 38°42' W 009°12'0 0.0
2015-May-18 10:31N 38°42' W 009°12'2 2.0
2015-May-18 09:32N 38°40' W 009°14'0 0.1
2015-May-18 08:33N 38°40' W 009°14'0 0.1
2015-May-18 07:32N 38°40' W 009°14'0 0.2
2015-May-18 06:30N 38°41' W 009°14'1 1.1
2015-May-18 05:23N 38°41' W 009°12'0 0.0
2015-May-18 04:33N 38°41' W 009°12'0 0.0
2015-May-17 21:07N 38°41' W 009°12'1 1.7
2015-May-17 20:32N 38°42' W 009°12'2 1.9
2015-May-17 19:32N 38°40' W 009°14'0 0.2
2015-May-17 18:33N 38°40' W 009°14'1 0.7
2015-May-17 17:34N 38°41' W 009°13'1 0.7
2015-May-17 16:32N 38°41' W 009°13'0 0.3
2015-May-17 15:33N 38°41' W 009°12'1 0.8
2015-May-17 14:31N 38°41' W 009°12'1 1.4
2015-May-17 13:32N 38°41' W 009°14'2 1.1
2015-May-17 12:11N 38°42' W 009°12'1 2.2
2015-May-17 11:32N 38°41' W 009°14'1 0.6
2015-May-17 10:31N 38°40' W 009°14'1 0.5
2015-May-17 09:33N 38°41' W 009°14'2 1.7
2015-May-17 08:31N 38°42' W 009°12'0 0.1
2015-May-17 07:32N 38°42' W 009°12'1 1.0
2015-May-17 06:27N 38°41' W 009°12'0 0.0
2015-May-16 21:12N 38°41' W 009°12'1 1.2
2015-May-16 20:33N 38°41' W 009°12'2 1.6
2015-May-16 19:33N 38°40' W 009°14'0 0.2
2015-May-16 18:32N 38°40' W 009°14'2 2.2
2015-May-16 17:31N 38°42' W 009°12'2 2.1
2015-May-16 16:21N 38°39' W 009°13'1 1.2
2015-May-16 15:08N 38°40' W 009°14'2 3.4
2015-May-16 14:33N 38°42' W 009°12'1 1.0
2015-May-16 13:33N 38°41' W 009°12'1 1.1
2015-May-16 12:33N 38°41' W 009°14'0 0.1
2015-May-16 11:33N 38°40' W 009°14'1 0.6
2015-May-16 10:33N 38°41' W 009°14'1 1.4
2015-May-16 09:31N 38°42' W 009°12'0 0.4
2015-May-16 08:33N 38°41' W 009°12'0 0.2
2015-May-16 07:33N 38°41' W 009°12'0 0.2
2015-May-16 06:33N 38°42' W 009°12'1 1.1
2015-May-16 05:33N 38°41' W 009°13'0 0.0
2015-May-15 04:28N 38°41' W 009°12'1 0.1
2015-May-14 21:09N 38°41' W 009°13'1 0.8
2015-May-14 20:22N 38°41' W 009°14'0 0.3
2015-May-14 19:28N 38°40' W 009°14'2 1.9
2015-May-14 18:33N 38°42' W 009°12'0 0.3
2015-May-14 17:29N 38°42' W 009°12'0 0.3
2015-May-14 16:33N 38°42' W 009°12'0 0.3
2015-May-14 15:31N 38°41' W 009°12'1 0.6
2015-May-14 14:34N 38°41' W 009°13'1 0.6
2015-May-14 13:29N 38°41' W 009°12'1 1.1
2015-May-14 12:31N 38°42' W 009°12'0 0.1
2015-May-14 11:33N 38°42' W 009°12'0 0.1
2015-May-14 10:32N 38°42' W 009°12'2 1.9
2015-May-14 09:32N 38°40' W 009°14'0 0.0
2015-May-14 08:29N 38°40' W 009°14'0 0.0
2015-May-14 07:31N 38°40' W 009°14'0 0.1
2015-May-14 06:33N 38°41' W 009°14'1 1.2
2015-May-14 05:32N 38°41' W 009°12'0 0.0
2015-May-13 21:33N 38°41' W 009°12'1 1.2
2015-May-13 20:33N 38°41' W 009°14'0 0.1
2015-May-13 19:33N 38°41' W 009°14'2 1.8
2015-May-13 18:33N 38°42' W 009°12'0 0.1
2015-May-13 17:32N 38°42' W 009°12'1 0.8
2015-May-13 16:33N 38°41' W 009°11'2 1.9
2015-May-13 15:32N 38°41' W 009°09'0 0.0
2015-May-13 13:30N 38°41' W 009°09'0 0.1
2015-May-13 12:31N 38°41' W 009°09'0 0.1
2015-May-13 10:33N 38°41' W 009°09'0 0.0
2015-May-13 09:33N 38°41' W 009°09'0 0.0
2015-May-13 08:33N 38°41' W 009°09'0 0.0
2015-May-13 07:33N 38°41' W 009°09'0 0.0
2015-May-12 18:30N 38°41' W 009°09'0 0.1
2015-May-12 15:12N 38°41' W 009°09'3 3.9
2015-May-12 14:32N 38°42' W 009°12'1 0.9
2015-May-12 13:31N 38°41' W 009°12'1 1.1
2015-May-12 12:33N 38°42' W 009°12'0 0.1
2015-May-12 11:33N 38°42' W 009°12'0 0.0
2015-May-12 10:33N 38°42' W 009°12'2 1.9
2015-May-12 09:33N 38°40' W 009°14'4 3.7
2015-May-12 08:33N 38°42' W 009°09'1 0.5
2015-May-12 07:28N 38°41' W 009°09'  

Dump ship's entire track history